sensor_id;sensor_type;location;lat;lon;timestamp;P1;durP1;ratioP1;P2;durP2;ratioP2
53269;SDS011;39159;45.634;9.420;2023-03-13T00:03:46;15.35;;;9.25;;
53269;SDS011;39159;45.634;9.420;2023-03-13T00:06:12;14.43;;;10.07;;
53269;SDS011;39159;45.634;9.420;2023-03-13T00:08:38;17.90;;;10.57;;
53269;SDS011;39159;45.634;9.420;2023-03-13T00:11:04;15.98;;;9.63;;
53269;SDS011;39159;45.634;9.420;2023-03-13T00:13:31;16.65;;;9.82;;
53269;SDS011;39159;45.634;9.420;2023-03-13T00:16:00;18.40;;;10.27;;
53269;SDS011;39159;45.634;9.420;2023-03-13T00:18:30;15.25;;;9.68;;
53269;SDS011;39159;45.634;9.420;2023-03-13T00:20:59;16.45;;;9.55;;
53269;SDS011;39159;45.634;9.420;2023-03-13T00:23:26;14.70;;;9.95;;
53269;SDS011;39159;45.634;9.420;2023-03-13T00:25:58;16.60;;;10.00;;
53269;SDS011;39159;45.634;9.420;2023-03-13T00:28:28;16.38;;;9.52;;
53269;SDS011;39159;45.634;9.420;2023-03-13T00:31:02;16.17;;;9.75;;
53269;SDS011;39159;45.634;9.420;2023-03-13T00:33:36;18.40;;;9.75;;
53269;SDS011;39159;45.634;9.420;2023-03-13T00:36:07;21.00;;;9.75;;
53269;SDS011;39159;45.634;9.420;2023-03-13T00:38:35;16.17;;;10.15;;
53269;SDS011;39159;45.634;9.420;2023-03-13T00:41:01;18.42;;;9.70;;
53269;SDS011;39159;45.634;9.420;2023-03-13T00:43:37;16.73;;;9.98;;
53269;SDS011;39159;45.634;9.420;2023-03-13T00:46:04;17.25;;;9.75;;
53269;SDS011;39159;45.634;9.420;2023-03-13T00:48:30;18.90;;;9.23;;
53269;SDS011;39159;45.634;9.420;2023-03-13T00:50:57;15.52;;;9.48;;
53269;SDS011;39159;45.634;9.420;2023-03-13T00:53:22;17.95;;;9.60;;
53269;SDS011;39159;45.634;9.420;2023-03-13T00:58:24;18.05;;;9.13;;
53269;SDS011;39159;45.634;9.420;2023-03-13T01:00:51;17.73;;;9.23;;
53269;SDS011;39159;45.634;9.420;2023-03-13T01:03:17;14.57;;;8.88;;
53269;SDS011;39159;45.634;9.420;2023-03-13T01:05:43;15.60;;;8.48;;
53269;SDS011;39159;45.634;9.420;2023-03-13T01:08:09;14.60;;;8.07;;
53269;SDS011;39159;45.634;9.420;2023-03-13T01:10:34;20.45;;;9.18;;
53269;SDS011;39159;45.634;9.420;2023-03-13T01:13:00;15.50;;;9.15;;
53269;SDS011;39159;45.634;9.420;2023-03-13T01:15:25;15.00;;;9.32;;
53269;SDS011;39159;45.634;9.420;2023-03-13T01:17:51;15.30;;;9.88;;
53269;SDS011;39159;45.634;9.420;2023-03-13T01:20:16;12.70;;;9.65;;
53269;SDS011;39159;45.634;9.420;2023-03-13T01:22:42;14.93;;;9.05;;
53269;SDS011;39159;45.634;9.420;2023-03-13T01:25:08;18.38;;;9.30;;
53269;SDS011;39159;45.634;9.420;2023-03-13T01:27:33;14.68;;;9.55;;
53269;SDS011;39159;45.634;9.420;2023-03-13T01:29:59;17.35;;;8.88;;
53269;SDS011;39159;45.634;9.420;2023-03-13T01:32:24;15.75;;;9.80;;
53269;SDS011;39159;45.634;9.420;2023-03-13T01:34:50;14.93;;;9.60;;
53269;SDS011;39159;45.634;9.420;2023-03-13T01:37:15;13.48;;;9.20;;
53269;SDS011;39159;45.634;9.420;2023-03-13T01:39:41;16.50;;;9.70;;
53269;SDS011;39159;45.634;9.420;2023-03-13T01:42:06;15.82;;;9.65;;
53269;SDS011;39159;45.634;9.420;2023-03-13T01:47:17;16.88;;;9.52;;
53269;SDS011;39159;45.634;9.420;2023-03-13T01:49:43;13.73;;;8.70;;
53269;SDS011;39159;45.634;9.420;2023-03-13T01:52:13;23.63;;;9.68;;
53269;SDS011;39159;45.634;9.420;2023-03-13T01:54:51;14.38;;;9.50;;
53269;SDS011;39159;45.634;9.420;2023-03-13T01:57:26;15.00;;;9.43;;
53269;SDS011;39159;45.634;9.420;2023-03-13T02:00:07;18.05;;;9.27;;
53269;SDS011;39159;45.634;9.420;2023-03-13T02:02:36;18.85;;;9.85;;
53269;SDS011;39159;45.634;9.420;2023-03-13T02:05:05;17.30;;;9.75;;
53269;SDS011;39159;45.634;9.420;2023-03-13T02:07:34;17.30;;;9.32;;
53269;SDS011;39159;45.634;9.420;2023-03-13T02:10:07;20.67;;;10.30;;
53269;SDS011;39159;45.634;9.420;2023-03-13T02:12:37;16.13;;;9.00;;
53269;SDS011;39159;45.634;9.420;2023-03-13T02:15:05;15.70;;;8.63;;
53269;SDS011;39159;45.634;9.420;2023-03-13T02:17:31;18.02;;;9.50;;
53269;SDS011;39159;45.634;9.420;2023-03-13T02:19:59;18.33;;;9.15;;
53269;SDS011;39159;45.634;9.420;2023-03-13T02:22:34;16.45;;;9.18;;
53269;SDS011;39159;45.634;9.420;2023-03-13T02:27:47;15.05;;;8.82;;
53269;SDS011;39159;45.634;9.420;2023-03-13T02:30:14;13.77;;;8.63;;
53269;SDS011;39159;45.634;9.420;2023-03-13T02:32:40;15.32;;;8.50;;
53269;SDS011;39159;45.634;9.420;2023-03-13T02:35:08;20.30;;;8.13;;
53269;SDS011;39159;45.634;9.420;2023-03-13T02:37:35;13.20;;;8.32;;
53269;SDS011;39159;45.634;9.420;2023-03-13T02:40:05;17.35;;;8.57;;
53269;SDS011;39159;45.634;9.420;2023-03-13T02:42:34;16.20;;;8.43;;
53269;SDS011;39159;45.634;9.420;2023-03-13T02:45:06;14.57;;;8.02;;
53269;SDS011;39159;45.634;9.420;2023-03-13T02:47:32;13.63;;;7.85;;
53269;SDS011;39159;45.634;9.420;2023-03-13T02:49:57;15.60;;;7.53;;
53269;SDS011;39159;45.634;9.420;2023-03-13T02:52:25;16.98;;;7.50;;
53269;SDS011;39159;45.634;9.420;2023-03-13T02:55:03;11.57;;;6.85;;
53269;SDS011;39159;45.634;9.420;2023-03-13T02:57:33;13.50;;;6.72;;
53269;SDS011;39159;45.634;9.420;2023-03-13T02:59:59;16.13;;;7.55;;
53269;SDS011;39159;45.634;9.420;2023-03-13T03:02:25;13.18;;;7.57;;
53269;SDS011;39159;45.634;9.420;2023-03-13T03:04:51;14.23;;;7.30;;
53269;SDS011;39159;45.634;9.420;2023-03-13T03:07:16;14.07;;;7.70;;
53269;SDS011;39159;45.634;9.420;2023-03-13T03:09:42;15.52;;;7.40;;
53269;SDS011;39159;45.634;9.420;2023-03-13T03:12:07;13.88;;;6.95;;
53269;SDS011;39159;45.634;9.420;2023-03-13T03:14:33;14.20;;;7.10;;
53269;SDS011;39159;45.634;9.420;2023-03-13T03:16:59;15.38;;;7.95;;
53269;SDS011;39159;45.634;9.420;2023-03-13T03:19:24;13.38;;;7.35;;
53269;SDS011;39159;45.634;9.420;2023-03-13T03:21:50;13.80;;;7.75;;
53269;SDS011;39159;45.634;9.420;2023-03-13T03:24:15;12.55;;;7.40;;
53269;SDS011;39159;45.634;9.420;2023-03-13T03:26:41;10.40;;;6.95;;
53269;SDS011;39159;45.634;9.420;2023-03-13T03:29:06;15.00;;;7.60;;
53269;SDS011;39159;45.634;9.420;2023-03-13T03:31:32;11.38;;;6.45;;
53269;SDS011;39159;45.634;9.420;2023-03-13T03:33:58;12.70;;;6.93;;
53269;SDS011;39159;45.634;9.420;2023-03-13T03:36:24;14.93;;;7.18;;
53269;SDS011;39159;45.634;9.420;2023-03-13T03:38:49;12.20;;;6.80;;
53269;SDS011;39159;45.634;9.420;2023-03-13T03:41:15;17.13;;;6.72;;
53269;SDS011;39159;45.634;9.420;2023-03-13T03:43:43;11.50;;;6.40;;
53269;SDS011;39159;45.634;9.420;2023-03-13T03:46:08;9.52;;;6.32;;
53269;SDS011;39159;45.634;9.420;2023-03-13T03:48:34;15.68;;;6.50;;
53269;SDS011;39159;45.634;9.420;2023-03-13T03:51:00;11.88;;;6.68;;
53269;SDS011;39159;45.634;9.420;2023-03-13T03:53:26;13.93;;;6.15;;
53269;SDS011;39159;45.634;9.420;2023-03-13T03:55:52;15.32;;;7.13;;
53269;SDS011;39159;45.634;9.420;2023-03-13T03:58:17;13.90;;;6.40;;
53269;SDS011;39159;45.634;9.420;2023-03-13T04:00:43;14.27;;;6.22;;
53269;SDS011;39159;45.634;9.420;2023-03-13T04:03:10;13.57;;;6.80;;
53269;SDS011;39159;45.634;9.420;2023-03-13T04:05:36;10.13;;;6.03;;
53269;SDS011;39159;45.634;9.420;2023-03-13T04:08:02;13.00;;;6.75;;
53269;SDS011;39159;45.634;9.420;2023-03-13T04:10:27;11.35;;;6.32;;
53269;SDS011;39159;45.634;9.420;2023-03-13T04:12:53;12.07;;;7.10;;
53269;SDS011;39159;45.634;9.420;2023-03-13T04:15:18;11.18;;;6.10;;
53269;SDS011;39159;45.634;9.420;2023-03-13T04:17:43;18.40;;;6.97;;
53269;SDS011;39159;45.634;9.420;2023-03-13T04:20:09;8.98;;;6.00;;
53269;SDS011;39159;45.634;9.420;2023-03-13T04:22:37;13.30;;;6.35;;
53269;SDS011;39159;45.634;9.420;2023-03-13T04:25:03;11.13;;;6.65;;
53269;SDS011;39159;45.634;9.420;2023-03-13T04:27:28;13.95;;;6.03;;
53269;SDS011;39159;45.634;9.420;2023-03-13T04:29:54;10.40;;;5.85;;
53269;SDS011;39159;45.634;9.420;2023-03-13T04:32:19;12.80;;;6.03;;
53269;SDS011;39159;45.634;9.420;2023-03-13T04:34:45;9.77;;;5.53;;
53269;SDS011;39159;45.634;9.420;2023-03-13T04:37:10;10.35;;;6.32;;
53269;SDS011;39159;45.634;9.420;2023-03-13T04:39:36;11.40;;;6.20;;
53269;SDS011;39159;45.634;9.420;2023-03-13T04:42:01;12.73;;;6.93;;
53269;SDS011;39159;45.634;9.420;2023-03-13T04:44:27;12.73;;;6.25;;
53269;SDS011;39159;45.634;9.420;2023-03-13T04:46:53;11.95;;;6.57;;
53269;SDS011;39159;45.634;9.420;2023-03-13T04:49:18;15.68;;;6.03;;
53269;SDS011;39159;45.634;9.420;2023-03-13T04:51:44;11.65;;;6.32;;
53269;SDS011;39159;45.634;9.420;2023-03-13T04:54:10;10.73;;;5.72;;
53269;SDS011;39159;45.634;9.420;2023-03-13T04:56:36;12.23;;;6.32;;
53269;SDS011;39159;45.634;9.420;2023-03-13T04:59:02;14.88;;;6.43;;
53269;SDS011;39159;45.634;9.420;2023-03-13T05:01:27;16.15;;;5.90;;
53269;SDS011;39159;45.634;9.420;2023-03-13T05:03:53;10.90;;;6.07;;
53269;SDS011;39159;45.634;9.420;2023-03-13T05:06:18;13.82;;;6.00;;
53269;SDS011;39159;45.634;9.420;2023-03-13T05:08:44;15.23;;;6.13;;
53269;SDS011;39159;45.634;9.420;2023-03-13T05:11:09;11.27;;;6.88;;
53269;SDS011;39159;45.634;9.420;2023-03-13T05:13:35;9.55;;;5.65;;
53269;SDS011;39159;45.634;9.420;2023-03-13T05:16:01;8.88;;;5.50;;
53269;SDS011;39159;45.634;9.420;2023-03-13T05:18:26;10.82;;;5.97;;
53269;SDS011;39159;45.634;9.420;2023-03-13T05:20:52;8.27;;;5.65;;
53269;SDS011;39159;45.634;9.420;2023-03-13T05:23:17;10.48;;;5.80;;
53269;SDS011;39159;45.634;9.420;2023-03-13T05:25:43;10.30;;;5.68;;
53269;SDS011;39159;45.634;9.420;2023-03-13T05:28:08;11.85;;;6.20;;
53269;SDS011;39159;45.634;9.420;2023-03-13T05:30:34;12.18;;;6.78;;
53269;SDS011;39159;45.634;9.420;2023-03-13T05:32:59;12.32;;;6.82;;
53269;SDS011;39159;45.634;9.420;2023-03-13T05:35:25;9.13;;;6.32;;
53269;SDS011;39159;45.634;9.420;2023-03-13T05:37:50;10.75;;;6.13;;
53269;SDS011;39159;45.634;9.420;2023-03-13T05:40:15;15.43;;;6.63;;
53269;SDS011;39159;45.634;9.420;2023-03-13T05:42:41;13.15;;;6.15;;
53269;SDS011;39159;45.634;9.420;2023-03-13T05:45:07;11.52;;;6.53;;
53269;SDS011;39159;45.634;9.420;2023-03-13T05:47:33;12.35;;;6.40;;
53269;SDS011;39159;45.634;9.420;2023-03-13T05:50:00;16.70;;;7.30;;
53269;SDS011;39159;45.634;9.420;2023-03-13T05:52:25;10.43;;;6.63;;
53269;SDS011;39159;45.634;9.420;2023-03-13T05:54:51;11.20;;;6.50;;
53269;SDS011;39159;45.634;9.420;2023-03-13T05:57:16;10.73;;;6.45;;
53269;SDS011;39159;45.634;9.420;2023-03-13T05:59:41;14.05;;;6.55;;
53269;SDS011;39159;45.634;9.420;2023-03-13T06:02:07;16.38;;;6.70;;
53269;SDS011;39159;45.634;9.420;2023-03-13T06:04:32;15.98;;;7.30;;
53269;SDS011;39159;45.634;9.420;2023-03-13T06:06:59;13.90;;;7.22;;
53269;SDS011;39159;45.634;9.420;2023-03-13T06:09:24;11.90;;;6.90;;
53269;SDS011;39159;45.634;9.420;2023-03-13T06:11:50;15.80;;;7.63;;
53269;SDS011;39159;45.634;9.420;2023-03-13T06:14:16;17.10;;;7.50;;
53269;SDS011;39159;45.634;9.420;2023-03-13T06:16:41;18.33;;;7.38;;
53269;SDS011;39159;45.634;9.420;2023-03-13T06:19:07;16.35;;;7.57;;
53269;SDS011;39159;45.634;9.420;2023-03-13T06:21:32;16.55;;;7.57;;
53269;SDS011;39159;45.634;9.420;2023-03-13T06:23:57;15.77;;;8.20;;
53269;SDS011;39159;45.634;9.420;2023-03-13T06:26:23;13.13;;;7.32;;
53269;SDS011;39159;45.634;9.420;2023-03-13T06:28:49;17.42;;;7.55;;
53269;SDS011;39159;45.634;9.420;2023-03-13T06:31:15;12.25;;;7.35;;
53269;SDS011;39159;45.634;9.420;2023-03-13T06:33:41;15.77;;;7.60;;
53269;SDS011;39159;45.634;9.420;2023-03-13T06:36:07;14.05;;;7.40;;
53269;SDS011;39159;45.634;9.420;2023-03-13T06:38:32;15.40;;;7.20;;
53269;SDS011;39159;45.634;9.420;2023-03-13T06:40:58;18.13;;;7.78;;
53269;SDS011;39159;45.634;9.420;2023-03-13T06:43:24;17.85;;;7.88;;
53269;SDS011;39159;45.634;9.420;2023-03-13T06:45:50;18.80;;;7.47;;
53269;SDS011;39159;45.634;9.420;2023-03-13T06:48:15;14.70;;;7.10;;
53269;SDS011;39159;45.634;9.420;2023-03-13T06:50:41;20.27;;;7.88;;
53269;SDS011;39159;45.634;9.420;2023-03-13T06:53:08;14.63;;;8.30;;
53269;SDS011;39159;45.634;9.420;2023-03-13T06:55:40;23.88;;;8.23;;
53269;SDS011;39159;45.634;9.420;2023-03-13T06:58:05;11.35;;;6.95;;
53269;SDS011;39159;45.634;9.420;2023-03-13T07:00:31;15.18;;;7.85;;
53269;SDS011;39159;45.634;9.420;2023-03-13T07:02:58;15.35;;;7.47;;
53269;SDS011;39159;45.634;9.420;2023-03-13T07:05:23;18.25;;;7.95;;
53269;SDS011;39159;45.634;9.420;2023-03-13T07:07:49;19.55;;;7.15;;
53269;SDS011;39159;45.634;9.420;2023-03-13T07:10:14;14.27;;;7.82;;
53269;SDS011;39159;45.634;9.420;2023-03-13T07:12:40;16.77;;;7.47;;
53269;SDS011;39159;45.634;9.420;2023-03-13T07:15:05;13.15;;;6.93;;
53269;SDS011;39159;45.634;9.420;2023-03-13T07:17:32;16.52;;;7.07;;
53269;SDS011;39159;45.634;9.420;2023-03-13T07:19:57;17.25;;;6.47;;
53269;SDS011;39159;45.634;9.420;2023-03-13T07:22:23;12.20;;;6.05;;
53269;SDS011;39159;45.634;9.420;2023-03-13T07:24:48;13.10;;;6.18;;
53269;SDS011;39159;45.634;9.420;2023-03-13T07:27:13;16.50;;;6.10;;
53269;SDS011;39159;45.634;9.420;2023-03-13T07:29:41;15.65;;;6.15;;
53269;SDS011;39159;45.634;9.420;2023-03-13T07:32:07;11.65;;;5.57;;
53269;SDS011;39159;45.634;9.420;2023-03-13T07:34:32;9.95;;;5.00;;
53269;SDS011;39159;45.634;9.420;2023-03-13T07:36:57;10.63;;;5.05;;
53269;SDS011;39159;45.634;9.420;2023-03-13T07:39:23;12.77;;;4.97;;
53269;SDS011;39159;45.634;9.420;2023-03-13T07:41:49;10.93;;;5.25;;
53269;SDS011;39159;45.634;9.420;2023-03-13T07:44:14;9.27;;;4.82;;
53269;SDS011;39159;45.634;9.420;2023-03-13T07:46:40;15.35;;;6.07;;
53269;SDS011;39159;45.634;9.420;2023-03-13T07:49:05;15.25;;;7.50;;
53269;SDS011;39159;45.634;9.420;2023-03-13T07:51:30;13.07;;;6.30;;
53269;SDS011;39159;45.634;9.420;2023-03-13T07:53:56;17.02;;;6.35;;
53269;SDS011;39159;45.634;9.420;2023-03-13T07:56:22;16.67;;;7.30;;
53269;SDS011;39159;45.634;9.420;2023-03-13T07:58:48;14.63;;;7.80;;
53269;SDS011;39159;45.634;9.420;2023-03-13T08:03:46;14.77;;;7.63;;
53269;SDS011;39159;45.634;9.420;2023-03-13T08:06:18;11.75;;;7.05;;
53269;SDS011;39159;45.634;9.420;2023-03-13T08:08:47;9.00;;;6.32;;
53269;SDS011;39159;45.634;9.420;2023-03-13T08:11:20;11.63;;;6.07;;
53269;SDS011;39159;45.634;9.420;2023-03-13T08:13:48;12.20;;;6.20;;
53269;SDS011;39159;45.634;9.420;2023-03-13T08:16:16;11.57;;;5.93;;
53269;SDS011;39159;45.634;9.420;2023-03-13T08:18:44;13.05;;;5.80;;
53269;SDS011;39159;45.634;9.420;2023-03-13T08:21:14;15.82;;;6.78;;
53269;SDS011;39159;45.634;9.420;2023-03-13T08:23:47;11.10;;;6.70;;
53269;SDS011;39159;45.634;9.420;2023-03-13T08:26:17;11.07;;;6.38;;
53269;SDS011;39159;45.634;9.420;2023-03-13T08:28:45;11.52;;;6.30;;
53269;SDS011;39159;45.634;9.420;2023-03-13T08:31:22;10.90;;;6.07;;
53269;SDS011;39159;45.634;9.420;2023-03-13T08:33:49;10.73;;;6.13;;
53269;SDS011;39159;45.634;9.420;2023-03-13T08:36:19;15.38;;;6.93;;
53269;SDS011;39159;45.634;9.420;2023-03-13T08:38:47;12.65;;;6.88;;
53269;SDS011;39159;45.634;9.420;2023-03-13T08:41:14;12.80;;;6.85;;
53269;SDS011;39159;45.634;9.420;2023-03-13T08:43:42;10.52;;;6.07;;
53269;SDS011;39159;45.634;9.420;2023-03-13T08:46:07;11.55;;;5.88;;
53269;SDS011;39159;45.634;9.420;2023-03-13T08:48:33;9.20;;;5.82;;
53269;SDS011;39159;45.634;9.420;2023-03-13T08:51:06;15.10;;;7.22;;
53269;SDS011;39159;45.634;9.420;2023-03-13T08:53:34;10.80;;;6.07;;
53269;SDS011;39159;45.634;9.420;2023-03-13T08:56:01;15.45;;;6.78;;
53269;SDS011;39159;45.634;9.420;2023-03-13T08:58:28;10.20;;;6.07;;
53269;SDS011;39159;45.634;9.420;2023-03-13T09:00:53;11.70;;;6.30;;
53269;SDS011;39159;45.634;9.420;2023-03-13T09:03:19;11.93;;;6.15;;
53269;SDS011;39159;45.634;9.420;2023-03-13T09:05:45;11.80;;;6.18;;
53269;SDS011;39159;45.634;9.420;2023-03-13T09:08:12;12.05;;;7.13;;
53269;SDS011;39159;45.634;9.420;2023-03-13T09:10:39;10.68;;;6.22;;
53269;SDS011;39159;45.634;9.420;2023-03-13T09:13:04;13.80;;;6.43;;
53269;SDS011;39159;45.634;9.420;2023-03-13T09:15:30;14.20;;;6.22;;
53269;SDS011;39159;45.634;9.420;2023-03-13T09:17:55;10.80;;;6.20;;
53269;SDS011;39159;45.634;9.420;2023-03-13T09:20:21;11.63;;;5.70;;
53269;SDS011;39159;45.634;9.420;2023-03-13T09:22:46;10.20;;;6.00;;
53269;SDS011;39159;45.634;9.420;2023-03-13T09:25:12;11.45;;;6.20;;
53269;SDS011;39159;45.634;9.420;2023-03-13T09:27:38;9.95;;;6.38;;
53269;SDS011;39159;45.634;9.420;2023-03-13T09:30:04;11.45;;;5.65;;
53269;SDS011;39159;45.634;9.420;2023-03-13T09:32:30;15.00;;;5.68;;
53269;SDS011;39159;45.634;9.420;2023-03-13T09:34:56;12.02;;;6.00;;
53269;SDS011;39159;45.634;9.420;2023-03-13T09:37:21;9.48;;;5.47;;
53269;SDS011;39159;45.634;9.420;2023-03-13T09:39:47;14.30;;;6.07;;
53269;SDS011;39159;45.634;9.420;2023-03-13T09:42:17;10.75;;;6.25;;
53269;SDS011;39159;45.634;9.420;2023-03-13T09:44:49;11.23;;;7.10;;
53269;SDS011;39159;45.634;9.420;2023-03-13T09:47:24;9.93;;;6.28;;
53269;SDS011;39159;45.634;9.420;2023-03-13T09:50:08;13.68;;;7.40;;
53269;SDS011;39159;45.634;9.420;2023-03-13T09:52:44;10.82;;;6.65;;
53269;SDS011;39159;45.634;9.420;2023-03-13T09:55:15;13.30;;;7.18;;
53269;SDS011;39159;45.634;9.420;2023-03-13T09:58:03;14.02;;;6.43;;
53269;SDS011;39159;45.634;9.420;2023-03-13T10:00:38;8.30;;;5.55;;
53269;SDS011;39159;45.634;9.420;2023-03-13T10:03:16;11.07;;;5.63;;
53269;SDS011;39159;45.634;9.420;2023-03-13T10:06:17;12.65;;;6.53;;
53269;SDS011;39159;45.634;9.420;2023-03-13T10:08:44;9.32;;;5.00;;
53269;SDS011;39159;45.634;9.420;2023-03-13T10:11:43;11.82;;;5.85;;
53269;SDS011;39159;45.634;9.420;2023-03-13T10:16:53;11.27;;;5.20;;
53269;SDS011;39159;45.634;9.420;2023-03-13T10:19:39;10.38;;;5.05;;
53269;SDS011;39159;45.634;9.420;2023-03-13T10:22:15;9.30;;;5.50;;
53269;SDS011;39159;45.634;9.420;2023-03-13T10:24:45;9.70;;;5.20;;
53269;SDS011;39159;45.634;9.420;2023-03-13T10:27:22;11.30;;;5.18;;
53269;SDS011;39159;45.634;9.420;2023-03-13T10:29:48;12.95;;;4.90;;
53269;SDS011;39159;45.634;9.420;2023-03-13T10:32:14;12.60;;;5.22;;
53269;SDS011;39159;45.634;9.420;2023-03-13T10:34:46;10.05;;;5.80;;
53269;SDS011;39159;45.634;9.420;2023-03-13T10:37:27;9.93;;;4.93;;
53269;SDS011;39159;45.634;9.420;2023-03-13T10:40:10;9.50;;;4.72;;
53269;SDS011;39159;45.634;9.420;2023-03-13T10:42:50;10.20;;;4.82;;
53269;SDS011;39159;45.634;9.420;2023-03-13T10:45:19;8.40;;;4.80;;
53269;SDS011;39159;45.634;9.420;2023-03-13T10:47:52;11.05;;;5.30;;
53269;SDS011;39159;45.634;9.420;2023-03-13T10:50:20;9.73;;;4.93;;
53269;SDS011;39159;45.634;9.420;2023-03-13T10:52:51;12.18;;;5.72;;
53269;SDS011;39159;45.634;9.420;2023-03-13T10:55:21;9.00;;;5.30;;
53269;SDS011;39159;45.634;9.420;2023-03-13T11:00:32;8.30;;;5.18;;
53269;SDS011;39159;45.634;9.420;2023-03-13T11:03:00;9.20;;;5.05;;
53269;SDS011;39159;45.634;9.420;2023-03-13T11:05:32;10.73;;;5.22;;
53269;SDS011;39159;45.634;9.420;2023-03-13T11:13:27;14.45;;;6.20;;
53269;SDS011;39159;45.634;9.420;2023-03-13T11:16:13;10.85;;;6.28;;
53269;SDS011;39159;45.634;9.420;2023-03-13T11:18:50;11.75;;;5.97;;
53269;SDS011;39159;45.634;9.420;2023-03-13T11:27:16;11.23;;;5.85;;
53269;SDS011;39159;45.634;9.420;2023-03-13T11:35:20;10.47;;;6.17;;
53269;SDS011;39159;45.634;9.420;2023-03-13T11:38:07;11.95;;;6.53;;
53269;SDS011;39159;45.634;9.420;2023-03-13T11:41:21;13.27;;;5.88;;
53269;SDS011;39159;45.634;9.420;2023-03-13T11:46:53;13.32;;;5.63;;
53269;SDS011;39159;45.634;9.420;2023-03-13T11:57:38;11.85;;;6.38;;
53269;SDS011;39159;45.634;9.420;2023-03-13T12:02:58;10.23;;;5.50;;
53269;SDS011;39159;45.634;9.420;2023-03-13T12:05:47;11.48;;;6.32;;
53269;SDS011;39159;45.634;9.420;2023-03-13T12:08:20;13.57;;;6.65;;
53269;SDS011;39159;45.634;9.420;2023-03-13T12:13:50;15.15;;;6.43;;
53269;SDS011;39159;45.634;9.420;2023-03-13T12:16:25;8.88;;;6.13;;
53269;SDS011;39159;45.634;9.420;2023-03-13T12:19:16;11.30;;;5.60;;
53269;SDS011;39159;45.634;9.420;2023-03-13T12:21:50;16.33;;;7.07;;
53269;SDS011;39159;45.634;9.420;2023-03-13T12:24:20;8.32;;;5.30;;
53269;SDS011;39159;45.634;9.420;2023-03-13T12:31:52;11.23;;;7.00;;
53269;SDS011;39159;45.634;9.420;2023-03-13T12:34:33;13.07;;;5.95;;
53269;SDS011;39159;45.634;9.420;2023-03-13T12:37:17;15.77;;;7.25;;
53269;SDS011;39159;45.634;9.420;2023-03-13T12:48:30;12.00;;;7.25;;
53269;SDS011;39159;45.634;9.420;2023-03-13T12:54:05;13.90;;;7.60;;
53269;SDS011;39159;45.634;9.420;2023-03-13T12:59:05;10.23;;;7.10;;
53269;SDS011;39159;45.634;9.420;2023-03-13T13:01:39;17.38;;;8.52;;
53269;SDS011;39159;45.634;9.420;2023-03-13T13:04:17;20.15;;;8.38;;
53269;SDS011;39159;45.634;9.420;2023-03-13T13:09:27;15.02;;;7.57;;
53269;SDS011;39159;45.634;9.420;2023-03-13T13:12:00;11.57;;;7.32;;
53269;SDS011;39159;45.634;9.420;2023-03-13T13:14:53;13.38;;;7.45;;
53269;SDS011;39159;45.634;9.420;2023-03-13T13:17:32;14.55;;;8.45;;
53269;SDS011;39159;45.634;9.420;2023-03-13T13:19:58;15.07;;;8.63;;
53269;SDS011;39159;45.634;9.420;2023-03-13T13:23:17;18.40;;;7.78;;
53269;SDS011;39159;45.634;9.420;2023-03-13T13:25:47;10.88;;;7.85;;
53269;SDS011;39159;45.634;9.420;2023-03-13T13:30:46;14.88;;;8.40;;
53269;SDS011;39159;45.634;9.420;2023-03-13T13:38:37;13.43;;;8.77;;
53269;SDS011;39159;45.634;9.420;2023-03-13T13:43:34;14.93;;;7.75;;
53269;SDS011;39159;45.634;9.420;2023-03-13T13:51:41;12.77;;;7.60;;
53269;SDS011;39159;45.634;9.420;2023-03-13T13:56:57;13.20;;;7.50;;
53269;SDS011;39159;45.634;9.420;2023-03-13T13:59:27;12.15;;;6.95;;
53269;SDS011;39159;45.634;9.420;2023-03-13T14:07:09;11.60;;;6.70;;
53269;SDS011;39159;45.634;9.420;2023-03-13T14:12:34;13.95;;;8.48;;
53269;SDS011;39159;45.634;9.420;2023-03-13T14:17:40;12.07;;;7.40;;
53269;SDS011;39159;45.634;9.420;2023-03-13T14:20:54;13.77;;;8.18;;
53269;SDS011;39159;45.634;9.420;2023-03-13T14:22:55;16.13;;;8.48;;
53269;SDS011;39159;45.634;9.420;2023-03-13T14:25:24;13.77;;;8.52;;
53269;SDS011;39159;45.634;9.420;2023-03-13T14:27:51;14.63;;;7.75;;
53269;SDS011;39159;45.634;9.420;2023-03-13T14:30:19;11.48;;;6.82;;
53269;SDS011;39159;45.634;9.420;2023-03-13T14:32:46;11.68;;;7.40;;
53269;SDS011;39159;45.634;9.420;2023-03-13T14:35:15;15.63;;;7.40;;
53269;SDS011;39159;45.634;9.420;2023-03-13T14:37:44;19.10;;;8.25;;
53269;SDS011;39159;45.634;9.420;2023-03-13T14:40:26;15.00;;;7.90;;
53269;SDS011;39159;45.634;9.420;2023-03-13T14:42:54;18.50;;;8.10;;
53269;SDS011;39159;45.634;9.420;2023-03-13T14:47:50;14.13;;;7.18;;
53269;SDS011;39159;45.634;9.420;2023-03-13T14:50:17;14.55;;;7.10;;
53269;SDS011;39159;45.634;9.420;2023-03-13T14:52:45;13.10;;;6.95;;
53269;SDS011;39159;45.634;9.420;2023-03-13T15:05:41;14.98;;;8.13;;
53269;SDS011;39159;45.634;9.420;2023-03-13T15:08:25;15.05;;;8.50;;
53269;SDS011;39159;45.634;9.420;2023-03-13T15:10:50;13.20;;;6.80;;
53269;SDS011;39159;45.634;9.420;2023-03-13T15:15:47;14.02;;;7.65;;
53269;SDS011;39159;45.634;9.420;2023-03-13T15:18:21;15.88;;;7.72;;
53269;SDS011;39159;45.634;9.420;2023-03-13T15:20:52;21.42;;;7.68;;
53269;SDS011;39159;45.634;9.420;2023-03-13T15:23:22;17.10;;;7.38;;
53269;SDS011;39159;45.634;9.420;2023-03-13T15:25:47;11.32;;;5.88;;
53269;SDS011;39159;45.634;9.420;2023-03-13T15:28:14;17.98;;;7.40;;
53269;SDS011;39159;45.634;9.420;2023-03-13T15:30:43;17.67;;;8.23;;
53269;SDS011;39159;45.634;9.420;2023-03-13T15:33:14;19.55;;;8.43;;
53269;SDS011;39159;45.634;9.420;2023-03-13T15:35:41;14.07;;;8.90;;
53269;SDS011;39159;45.634;9.420;2023-03-13T15:38:17;16.15;;;8.45;;
53269;SDS011;39159;45.634;9.420;2023-03-13T15:40:44;17.83;;;7.93;;
53269;SDS011;39159;45.634;9.420;2023-03-13T15:43:11;19.05;;;9.43;;
53269;SDS011;39159;45.634;9.420;2023-03-13T15:45:37;18.63;;;8.63;;
53269;SDS011;39159;45.634;9.420;2023-03-13T15:48:15;16.20;;;8.50;;
53269;SDS011;39159;45.634;9.420;2023-03-13T15:50:43;16.83;;;9.15;;
53269;SDS011;39159;45.634;9.420;2023-03-13T15:53:20;19.83;;;8.93;;
53269;SDS011;39159;45.634;9.420;2023-03-13T15:55:48;16.13;;;8.98;;
53269;SDS011;39159;45.634;9.420;2023-03-13T15:58:15;21.50;;;10.57;;
53269;SDS011;39159;45.634;9.420;2023-03-13T16:00:41;24.55;;;9.90;;
53269;SDS011;39159;45.634;9.420;2023-03-13T16:03:11;20.50;;;9.30;;
53269;SDS011;39159;45.634;9.420;2023-03-13T16:05:43;18.05;;;9.38;;
53269;SDS011;39159;45.634;9.420;2023-03-13T16:08:14;20.20;;;9.68;;
53269;SDS011;39159;45.634;9.420;2023-03-13T16:10:42;16.52;;;9.90;;
53269;SDS011;39159;45.634;9.420;2023-03-13T16:13:08;19.90;;;10.77;;
53269;SDS011;39159;45.634;9.420;2023-03-13T16:15:34;16.23;;;9.02;;
53269;SDS011;39159;45.634;9.420;2023-03-13T16:18:00;15.93;;;9.35;;
53269;SDS011;39159;45.634;9.420;2023-03-13T16:20:25;21.33;;;9.93;;
53269;SDS011;39159;45.634;9.420;2023-03-13T16:22:53;14.45;;;8.50;;
53269;SDS011;39159;45.634;9.420;2023-03-13T16:25:19;16.75;;;9.20;;
53269;SDS011;39159;45.634;9.420;2023-03-13T16:27:46;16.40;;;9.52;;
53269;SDS011;39159;45.634;9.420;2023-03-13T16:30:17;16.67;;;8.85;;
53269;SDS011;39159;45.634;9.420;2023-03-13T16:32:47;21.80;;;9.60;;
53269;SDS011;39159;45.634;9.420;2023-03-13T16:35:13;14.77;;;9.10;;
53269;SDS011;39159;45.634;9.420;2023-03-13T16:37:39;16.33;;;9.45;;
53269;SDS011;39159;45.634;9.420;2023-03-13T16:40:24;18.70;;;9.75;;
53269;SDS011;39159;45.634;9.420;2023-03-13T16:45:22;17.15;;;10.75;;
53269;SDS011;39159;45.634;9.420;2023-03-13T16:47:48;24.20;;;10.88;;